sensor_id;sensor_type;location;lat;lon;timestamp;P1;durP1;ratioP1;P2;durP2;ratioP2
2486;SDS011;1254;49.144;8.212;2023-05-07T00:01:39;4.00;;;3.63;;
2486;SDS011;1254;49.144;8.212;2023-05-07T00:04:08;5.00;;;3.60;;
2486;SDS011;1254;49.144;8.212;2023-05-07T00:06:36;6.47;;;4.00;;
2486;SDS011;1254;49.144;8.212;2023-05-07T00:09:04;5.70;;;3.73;;
2486;SDS011;1254;49.144;8.212;2023-05-07T00:11:33;4.50;;;3.43;;
2486;SDS011;1254;49.144;8.212;2023-05-07T00:14:01;4.83;;;4.17;;
2486;SDS011;1254;49.144;8.212;2023-05-07T00:16:30;4.13;;;3.83;;
2486;SDS011;1254;49.144;8.212;2023-05-07T00:18:59;3.70;;;3.50;;
2486;SDS011;1254;49.144;8.212;2023-05-07T00:21:27;3.73;;;3.53;;
2486;SDS011;1254;49.144;8.212;2023-05-07T00:23:56;17.03;;;3.57;;
2486;SDS011;1254;49.144;8.212;2023-05-07T00:26:24;3.57;;;3.37;;
2486;SDS011;1254;49.144;8.212;2023-05-07T00:28:53;4.60;;;4.20;;
2486;SDS011;1254;49.144;8.212;2023-05-07T00:31:21;4.73;;;4.43;;
2486;SDS011;1254;49.144;8.212;2023-05-07T00:33:51;5.10;;;4.47;;
2486;SDS011;1254;49.144;8.212;2023-05-07T00:36:19;8.47;;;4.30;;
2486;SDS011;1254;49.144;8.212;2023-05-07T00:38:47;5.23;;;4.07;;
2486;SDS011;1254;49.144;8.212;2023-05-07T00:41:15;4.40;;;4.00;;
2486;SDS011;1254;49.144;8.212;2023-05-07T00:43:44;4.07;;;3.60;;
2486;SDS011;1254;49.144;8.212;2023-05-07T00:46:12;4.93;;;4.43;;
2486;SDS011;1254;49.144;8.212;2023-05-07T00:48:42;4.83;;;4.30;;
2486;SDS011;1254;49.144;8.212;2023-05-07T00:51:11;4.90;;;4.40;;
2486;SDS011;1254;49.144;8.212;2023-05-07T00:53:39;5.27;;;4.47;;
2486;SDS011;1254;49.144;8.212;2023-05-07T00:56:08;4.93;;;4.53;;
2486;SDS011;1254;49.144;8.212;2023-05-07T00:58:36;6.70;;;4.90;;
2486;SDS011;1254;49.144;8.212;2023-05-07T01:01:04;4.77;;;4.27;;
2486;SDS011;1254;49.144;8.212;2023-05-07T01:03:37;4.60;;;4.20;;
2486;SDS011;1254;49.144;8.212;2023-05-07T01:06:05;4.63;;;4.27;;
2486;SDS011;1254;49.144;8.212;2023-05-07T01:08:35;4.00;;;3.70;;
2486;SDS011;1254;49.144;8.212;2023-05-07T01:11:05;4.60;;;4.20;;
2486;SDS011;1254;49.144;8.212;2023-05-07T01:13:34;5.13;;;4.57;;
2486;SDS011;1254;49.144;8.212;2023-05-07T01:16:04;7.87;;;4.70;;
2486;SDS011;1254;49.144;8.212;2023-05-07T01:18:32;5.17;;;4.53;;
2486;SDS011;1254;49.144;8.212;2023-05-07T01:21:01;5.07;;;4.00;;
2486;SDS011;1254;49.144;8.212;2023-05-07T01:23:33;5.20;;;4.30;;
2486;SDS011;1254;49.144;8.212;2023-05-07T01:26:02;4.53;;;4.13;;
2486;SDS011;1254;49.144;8.212;2023-05-07T01:28:32;6.83;;;5.00;;
2486;SDS011;1254;49.144;8.212;2023-05-07T01:31:02;5.27;;;4.50;;
2486;SDS011;1254;49.144;8.212;2023-05-07T01:33:33;4.47;;;4.07;;
2486;SDS011;1254;49.144;8.212;2023-05-07T01:36:03;3.90;;;3.60;;
2486;SDS011;1254;49.144;8.212;2023-05-07T01:38:34;4.97;;;4.40;;
2486;SDS011;1254;49.144;8.212;2023-05-07T01:41:03;4.97;;;4.57;;
2486;SDS011;1254;49.144;8.212;2023-05-07T01:43:31;4.80;;;4.30;;
2486;SDS011;1254;49.144;8.212;2023-05-07T01:46:00;4.70;;;4.23;;
2486;SDS011;1254;49.144;8.212;2023-05-07T01:48:29;4.90;;;4.53;;
2486;SDS011;1254;49.144;8.212;2023-05-07T01:50:57;4.70;;;4.40;;
2486;SDS011;1254;49.144;8.212;2023-05-07T01:53:26;4.73;;;4.33;;
2486;SDS011;1254;49.144;8.212;2023-05-07T01:55:56;5.57;;;4.97;;
2486;SDS011;1254;49.144;8.212;2023-05-07T01:58:24;5.10;;;4.70;;
2486;SDS011;1254;49.144;8.212;2023-05-07T02:00:53;5.40;;;4.50;;
2486;SDS011;1254;49.144;8.212;2023-05-07T02:03:21;6.00;;;4.83;;
2486;SDS011;1254;49.144;8.212;2023-05-07T02:05:57;6.03;;;4.67;;
2486;SDS011;1254;49.144;8.212;2023-05-07T02:08:32;5.33;;;4.83;;
2486;SDS011;1254;49.144;8.212;2023-05-07T02:11:02;4.90;;;4.40;;
2486;SDS011;1254;49.144;8.212;2023-05-07T02:13:31;6.03;;;5.10;;
2486;SDS011;1254;49.144;8.212;2023-05-07T02:16:00;5.70;;;5.10;;
2486;SDS011;1254;49.144;8.212;2023-05-07T02:18:29;5.33;;;4.67;;
2486;SDS011;1254;49.144;8.212;2023-05-07T02:20:58;7.13;;;4.80;;
2486;SDS011;1254;49.144;8.212;2023-05-07T02:23:26;4.93;;;4.53;;
2486;SDS011;1254;49.144;8.212;2023-05-07T02:25:54;4.80;;;4.50;;
2486;SDS011;1254;49.144;8.212;2023-05-07T02:28:24;13.90;;;4.97;;
2486;SDS011;1254;49.144;8.212;2023-05-07T02:30:59;4.80;;;4.40;;
2486;SDS011;1254;49.144;8.212;2023-05-07T02:33:29;6.97;;;5.10;;
2486;SDS011;1254;49.144;8.212;2023-05-07T02:36:04;4.83;;;4.50;;
2486;SDS011;1254;49.144;8.212;2023-05-07T02:38:33;4.60;;;4.30;;
2486;SDS011;1254;49.144;8.212;2023-05-07T02:41:02;4.53;;;4.23;;
2486;SDS011;1254;49.144;8.212;2023-05-07T02:43:32;5.43;;;4.93;;
2486;SDS011;1254;49.144;8.212;2023-05-07T02:46:00;6.53;;;4.80;;
2486;SDS011;1254;49.144;8.212;2023-05-07T02:48:29;6.00;;;5.50;;
2486;SDS011;1254;49.144;8.212;2023-05-07T02:50:58;5.53;;;4.97;;
2486;SDS011;1254;49.144;8.212;2023-05-07T02:53:26;5.40;;;4.90;;
2486;SDS011;1254;49.144;8.212;2023-05-07T02:55:55;4.77;;;4.43;;
2486;SDS011;1254;49.144;8.212;2023-05-07T02:58:24;4.80;;;4.40;;
2486;SDS011;1254;49.144;8.212;2023-05-07T03:00:54;5.70;;;4.70;;
2486;SDS011;1254;49.144;8.212;2023-05-07T03:03:33;4.77;;;4.47;;
2486;SDS011;1254;49.144;8.212;2023-05-07T03:06:01;4.70;;;4.40;;
2486;SDS011;1254;49.144;8.212;2023-05-07T03:08:29;5.00;;;4.50;;
2486;SDS011;1254;49.144;8.212;2023-05-07T03:10:58;5.43;;;5.00;;
2486;SDS011;1254;49.144;8.212;2023-05-07T03:13:26;5.20;;;4.80;;
2486;SDS011;1254;49.144;8.212;2023-05-07T03:15:56;5.37;;;4.97;;
2486;SDS011;1254;49.144;8.212;2023-05-07T03:18:24;5.53;;;4.63;;
2486;SDS011;1254;49.144;8.212;2023-05-07T03:20:52;8.40;;;5.07;;
2486;SDS011;1254;49.144;8.212;2023-05-07T03:23:20;5.17;;;4.70;;
2486;SDS011;1254;49.144;8.212;2023-05-07T03:25:49;5.53;;;4.83;;
2486;SDS011;1254;49.144;8.212;2023-05-07T03:28:17;7.50;;;4.53;;
2486;SDS011;1254;49.144;8.212;2023-05-07T03:30:51;5.70;;;5.17;;
2486;SDS011;1254;49.144;8.212;2023-05-07T03:33:21;7.10;;;5.23;;
2486;SDS011;1254;49.144;8.212;2023-05-07T03:35:49;6.33;;;5.10;;
2486;SDS011;1254;49.144;8.212;2023-05-07T03:38:22;5.03;;;4.40;;
2486;SDS011;1254;49.144;8.212;2023-05-07T03:40:51;5.50;;;5.00;;
2486;SDS011;1254;49.144;8.212;2023-05-07T03:43:19;5.37;;;4.90;;
2486;SDS011;1254;49.144;8.212;2023-05-07T03:45:52;5.30;;;4.80;;
2486;SDS011;1254;49.144;8.212;2023-05-07T03:48:26;5.43;;;4.93;;
2486;SDS011;1254;49.144;8.212;2023-05-07T03:50:57;5.23;;;4.60;;
2486;SDS011;1254;49.144;8.212;2023-05-07T03:53:29;5.87;;;5.37;;
2486;SDS011;1254;49.144;8.212;2023-05-07T03:55:57;6.70;;;4.47;;
2486;SDS011;1254;49.144;8.212;2023-05-07T03:58:26;5.17;;;4.73;;
2486;SDS011;1254;49.144;8.212;2023-05-07T04:00:57;6.37;;;4.50;;
2486;SDS011;1254;49.144;8.212;2023-05-07T04:03:29;4.47;;;4.17;;
2486;SDS011;1254;49.144;8.212;2023-05-07T04:05:59;8.20;;;5.67;;
2486;SDS011;1254;49.144;8.212;2023-05-07T04:08:28;4.93;;;4.53;;
2486;SDS011;1254;49.144;8.212;2023-05-07T04:10:56;5.30;;;4.90;;
2486;SDS011;1254;49.144;8.212;2023-05-07T04:13:28;4.63;;;4.33;;
2486;SDS011;1254;49.144;8.212;2023-05-07T04:15:58;6.27;;;4.93;;
2486;SDS011;1254;49.144;8.212;2023-05-07T04:18:26;5.57;;;4.50;;
2486;SDS011;1254;49.144;8.212;2023-05-07T04:20:56;4.63;;;4.33;;
2486;SDS011;1254;49.144;8.212;2023-05-07T04:23:24;7.03;;;5.17;;
2486;SDS011;1254;49.144;8.212;2023-05-07T04:25:53;4.87;;;4.47;;
2486;SDS011;1254;49.144;8.212;2023-05-07T04:28:48;5.80;;;5.30;;
2486;SDS011;1254;49.144;8.212;2023-05-07T04:31:16;5.37;;;4.97;;
2486;SDS011;1254;49.144;8.212;2023-05-07T04:33:49;9.23;;;4.97;;
2486;SDS011;1254;49.144;8.212;2023-05-07T04:36:19;4.97;;;4.40;;
2486;SDS011;1254;49.144;8.212;2023-05-07T04:38:57;6.27;;;4.43;;
2486;SDS011;1254;49.144;8.212;2023-05-07T04:41:25;5.20;;;4.80;;
2486;SDS011;1254;49.144;8.212;2023-05-07T04:43:54;5.43;;;4.93;;
2486;SDS011;1254;49.144;8.212;2023-05-07T04:46:24;10.80;;;4.73;;
2486;SDS011;1254;49.144;8.212;2023-05-07T04:48:54;5.80;;;4.37;;
2486;SDS011;1254;49.144;8.212;2023-05-07T04:51:24;6.37;;;3.73;;
2486;SDS011;1254;49.144;8.212;2023-05-07T04:53:53;6.17;;;4.60;;
2486;SDS011;1254;49.144;8.212;2023-05-07T04:56:21;4.93;;;4.47;;
2486;SDS011;1254;49.144;8.212;2023-05-07T04:58:49;6.90;;;5.10;;
2486;SDS011;1254;49.144;8.212;2023-05-07T05:01:20;5.10;;;4.70;;
2486;SDS011;1254;49.144;8.212;2023-05-07T05:03:48;4.87;;;4.47;;
2486;SDS011;1254;49.144;8.212;2023-05-07T05:06:17;7.90;;;4.73;;
2486;SDS011;1254;49.144;8.212;2023-05-07T05:08:47;7.43;;;5.33;;
2486;SDS011;1254;49.144;8.212;2023-05-07T05:11:15;4.97;;;4.57;;
2486;SDS011;1254;49.144;8.212;2023-05-07T05:13:43;4.43;;;4.03;;
2486;SDS011;1254;49.144;8.212;2023-05-07T05:16:17;4.63;;;4.23;;
2486;SDS011;1254;49.144;8.212;2023-05-07T05:18:45;4.70;;;3.97;;
2486;SDS011;1254;49.144;8.212;2023-05-07T05:21:17;5.20;;;4.00;;
2486;SDS011;1254;49.144;8.212;2023-05-07T05:23:49;4.90;;;4.60;;
2486;SDS011;1254;49.144;8.212;2023-05-07T05:26:21;4.77;;;4.30;;
2486;SDS011;1254;49.144;8.212;2023-05-07T05:28:49;7.33;;;4.33;;
2486;SDS011;1254;49.144;8.212;2023-05-07T05:31:20;4.93;;;4.43;;
2486;SDS011;1254;49.144;8.212;2023-05-07T05:33:50;4.10;;;3.70;;
2486;SDS011;1254;49.144;8.212;2023-05-07T05:36:18;4.53;;;4.07;;
2486;SDS011;1254;49.144;8.212;2023-05-07T05:38:49;4.70;;;4.30;;
2486;SDS011;1254;49.144;8.212;2023-05-07T05:41:17;6.53;;;3.93;;
2486;SDS011;1254;49.144;8.212;2023-05-07T05:43:46;4.93;;;4.47;;
2486;SDS011;1254;49.144;8.212;2023-05-07T05:46:15;4.60;;;4.10;;
2486;SDS011;1254;49.144;8.212;2023-05-07T05:48:43;4.70;;;4.23;;
2486;SDS011;1254;49.144;8.212;2023-05-07T05:51:12;6.30;;;4.17;;
2486;SDS011;1254;49.144;8.212;2023-05-07T05:53:40;6.63;;;3.70;;
2486;SDS011;1254;49.144;8.212;2023-05-07T05:56:09;16.30;;;3.73;;
2486;SDS011;1254;49.144;8.212;2023-05-07T05:58:40;5.13;;;4.60;;
2486;SDS011;1254;49.144;8.212;2023-05-07T06:01:09;4.03;;;3.47;;
2486;SDS011;1254;49.144;8.212;2023-05-07T06:03:38;4.73;;;4.33;;
2486;SDS011;1254;49.144;8.212;2023-05-07T06:06:12;5.30;;;3.83;;
2486;SDS011;1254;49.144;8.212;2023-05-07T06:08:42;4.60;;;4.20;;
2486;SDS011;1254;49.144;8.212;2023-05-07T06:11:14;7.13;;;4.33;;
2486;SDS011;1254;49.144;8.212;2023-05-07T06:13:45;7.20;;;4.53;;
2486;SDS011;1254;49.144;8.212;2023-05-07T06:16:13;4.47;;;4.07;;
2486;SDS011;1254;49.144;8.212;2023-05-07T06:18:42;4.10;;;3.80;;
2486;SDS011;1254;49.144;8.212;2023-05-07T06:21:13;3.90;;;3.70;;
2486;SDS011;1254;49.144;8.212;2023-05-07T06:23:41;4.50;;;4.10;;
2486;SDS011;1254;49.144;8.212;2023-05-07T06:26:10;4.17;;;3.77;;
2486;SDS011;1254;49.144;8.212;2023-05-07T06:28:43;4.57;;;4.17;;
2486;SDS011;1254;49.144;8.212;2023-05-07T06:31:13;8.33;;;3.67;;
2486;SDS011;1254;49.144;8.212;2023-05-07T06:33:46;6.17;;;3.60;;
2486;SDS011;1254;49.144;8.212;2023-05-07T06:36:15;4.17;;;3.87;;
2486;SDS011;1254;49.144;8.212;2023-05-07T06:38:44;3.97;;;3.60;;
2486;SDS011;1254;49.144;8.212;2023-05-07T06:41:12;3.10;;;2.90;;
2486;SDS011;1254;49.144;8.212;2023-05-07T06:43:40;6.53;;;3.70;;
2486;SDS011;1254;49.144;8.212;2023-05-07T06:46:26;4.90;;;4.03;;
2486;SDS011;1254;49.144;8.212;2023-05-07T06:48:55;9.80;;;3.43;;
2486;SDS011;1254;49.144;8.212;2023-05-07T06:51:23;4.60;;;3.30;;
2486;SDS011;1254;49.144;8.212;2023-05-07T06:53:53;3.60;;;3.40;;
2486;SDS011;1254;49.144;8.212;2023-05-07T06:56:21;4.00;;;3.70;;
2486;SDS011;1254;49.144;8.212;2023-05-07T06:58:50;3.70;;;3.43;;
2486;SDS011;1254;49.144;8.212;2023-05-07T07:01:20;4.20;;;3.80;;
2486;SDS011;1254;49.144;8.212;2023-05-07T07:03:49;4.80;;;3.40;;
2486;SDS011;1254;49.144;8.212;2023-05-07T07:06:19;3.13;;;2.90;;
2486;SDS011;1254;49.144;8.212;2023-05-07T07:08:48;3.20;;;3.00;;
2486;SDS011;1254;49.144;8.212;2023-05-07T07:11:17;3.67;;;3.40;;
2486;SDS011;1254;49.144;8.212;2023-05-07T07:13:46;3.77;;;3.40;;
2486;SDS011;1254;49.144;8.212;2023-05-07T07:16:15;4.17;;;3.27;;
2486;SDS011;1254;49.144;8.212;2023-05-07T07:18:44;3.17;;;3.03;;
2486;SDS011;1254;49.144;8.212;2023-05-07T07:21:14;7.03;;;3.10;;
2486;SDS011;1254;49.144;8.212;2023-05-07T07:23:42;4.30;;;3.47;;
2486;SDS011;1254;49.144;8.212;2023-05-07T07:26:11;4.07;;;3.80;;
2486;SDS011;1254;49.144;8.212;2023-05-07T07:28:42;3.77;;;3.10;;
2486;SDS011;1254;49.144;8.212;2023-05-07T07:31:11;3.43;;;3.10;;
2486;SDS011;1254;49.144;8.212;2023-05-07T07:33:39;3.40;;;3.20;;
2486;SDS011;1254;49.144;8.212;2023-05-07T07:36:07;5.77;;;3.63;;
2486;SDS011;1254;49.144;8.212;2023-05-07T07:38:37;4.00;;;3.70;;
2486;SDS011;1254;49.144;8.212;2023-05-07T07:41:07;6.30;;;2.97;;
2486;SDS011;1254;49.144;8.212;2023-05-07T07:43:36;3.37;;;3.17;;
2486;SDS011;1254;49.144;8.212;2023-05-07T07:46:05;3.50;;;3.30;;
2486;SDS011;1254;49.144;8.212;2023-05-07T07:48:33;3.77;;;3.57;;
2486;SDS011;1254;49.144;8.212;2023-05-07T07:51:01;3.67;;;3.47;;
2486;SDS011;1254;49.144;8.212;2023-05-07T07:53:30;5.00;;;4.03;;
2486;SDS011;1254;49.144;8.212;2023-05-07T07:55:59;4.37;;;3.97;;
2486;SDS011;1254;49.144;8.212;2023-05-07T07:58:31;6.73;;;3.70;;
2486;SDS011;1254;49.144;8.212;2023-05-07T08:01:02;5.97;;;4.37;;
2486;SDS011;1254;49.144;8.212;2023-05-07T08:03:30;3.60;;;3.40;;
2486;SDS011;1254;49.144;8.212;2023-05-07T08:05:59;3.93;;;3.63;;
2486;SDS011;1254;49.144;8.212;2023-05-07T08:08:28;3.83;;;3.53;;
2486;SDS011;1254;49.144;8.212;2023-05-07T08:10:57;3.87;;;3.17;;
2486;SDS011;1254;49.144;8.212;2023-05-07T08:13:31;4.20;;;3.80;;
2486;SDS011;1254;49.144;8.212;2023-05-07T08:16:00;3.93;;;3.27;;
2486;SDS011;1254;49.144;8.212;2023-05-07T08:18:28;4.03;;;3.83;;
2486;SDS011;1254;49.144;8.212;2023-05-07T08:21:00;3.70;;;3.50;;
2486;SDS011;1254;49.144;8.212;2023-05-07T08:23:29;4.07;;;3.83;;
2486;SDS011;1254;49.144;8.212;2023-05-07T08:25:58;4.27;;;3.70;;
2486;SDS011;1254;49.144;8.212;2023-05-07T08:28:26;4.37;;;4.07;;
2486;SDS011;1254;49.144;8.212;2023-05-07T08:30:56;4.07;;;3.70;;
2486;SDS011;1254;49.144;8.212;2023-05-07T08:33:27;3.77;;;3.40;;
2486;SDS011;1254;49.144;8.212;2023-05-07T08:35:56;4.20;;;4.00;;
2486;SDS011;1254;49.144;8.212;2023-05-07T08:38:24;5.20;;;4.90;;
2486;SDS011;1254;49.144;8.212;2023-05-07T08:40:53;5.10;;;3.70;;
2486;SDS011;1254;49.144;8.212;2023-05-07T08:43:21;5.50;;;4.53;;
2486;SDS011;1254;49.144;8.212;2023-05-07T08:45:51;4.63;;;4.23;;
2486;SDS011;1254;49.144;8.212;2023-05-07T08:48:25;5.10;;;3.80;;
2486;SDS011;1254;49.144;8.212;2023-05-07T08:51:00;4.40;;;4.20;;
2486;SDS011;1254;49.144;8.212;2023-05-07T08:53:29;4.17;;;3.90;;
2486;SDS011;1254;49.144;8.212;2023-05-07T08:55:57;3.77;;;3.57;;
2486;SDS011;1254;49.144;8.212;2023-05-07T08:58:28;4.07;;;3.77;;
2486;SDS011;1254;49.144;8.212;2023-05-07T09:00:56;4.13;;;3.83;;
2486;SDS011;1254;49.144;8.212;2023-05-07T09:03:26;4.40;;;4.10;;
2486;SDS011;1254;49.144;8.212;2023-05-07T09:05:56;4.97;;;4.57;;
2486;SDS011;1254;49.144;8.212;2023-05-07T09:08:26;4.30;;;4.10;;
2486;SDS011;1254;49.144;8.212;2023-05-07T09:10:57;5.00;;;4.70;;
2486;SDS011;1254;49.144;8.212;2023-05-07T09:13:26;4.20;;;4.00;;
2486;SDS011;1254;49.144;8.212;2023-05-07T09:15:55;4.10;;;3.80;;
2486;SDS011;1254;49.144;8.212;2023-05-07T09:18:26;21.03;;;5.20;;
2486;SDS011;1254;49.144;8.212;2023-05-07T09:20:55;8.63;;;4.10;;
2486;SDS011;1254;49.144;8.212;2023-05-07T09:23:23;5.17;;;4.80;;
2486;SDS011;1254;49.144;8.212;2023-05-07T09:25:53;4.10;;;3.80;;
2486;SDS011;1254;49.144;8.212;2023-05-07T09:28:30;4.43;;;4.23;;
2486;SDS011;1254;49.144;8.212;2023-05-07T09:30:59;4.50;;;4.30;;
2486;SDS011;1254;49.144;8.212;2023-05-07T09:33:29;4.77;;;4.50;;
2486;SDS011;1254;49.144;8.212;2023-05-07T09:36:01;4.10;;;3.90;;
2486;SDS011;1254;49.144;8.212;2023-05-07T09:38:30;6.67;;;5.00;;
2486;SDS011;1254;49.144;8.212;2023-05-07T09:41:02;5.23;;;4.83;;
2486;SDS011;1254;49.144;8.212;2023-05-07T09:43:33;4.70;;;4.40;;
2486;SDS011;1254;49.144;8.212;2023-05-07T09:46:06;4.93;;;4.53;;
2486;SDS011;1254;49.144;8.212;2023-05-07T09:48:40;5.20;;;4.20;;
2486;SDS011;1254;49.144;8.212;2023-05-07T09:51:11;5.77;;;5.33;;
2486;SDS011;1254;49.144;8.212;2023-05-07T09:53:43;5.40;;;5.10;;
2486;SDS011;1254;49.144;8.212;2023-05-07T09:56:13;4.67;;;4.40;;
2486;SDS011;1254;49.144;8.212;2023-05-07T09:58:43;5.97;;;5.10;;
2486;SDS011;1254;49.144;8.212;2023-05-07T10:01:12;5.23;;;4.93;;
2486;SDS011;1254;49.144;8.212;2023-05-07T10:03:43;5.53;;;5.20;;
2486;SDS011;1254;49.144;8.212;2023-05-07T10:06:11;5.47;;;4.97;;
2486;SDS011;1254;49.144;8.212;2023-05-07T10:08:41;5.43;;;5.13;;
2486;SDS011;1254;49.144;8.212;2023-05-07T10:11:10;5.63;;;5.10;;
2486;SDS011;1254;49.144;8.212;2023-05-07T10:13:39;5.43;;;4.93;;
2486;SDS011;1254;49.144;8.212;2023-05-07T10:16:09;6.93;;;5.00;;
2486;SDS011;1254;49.144;8.212;2023-05-07T10:18:47;5.87;;;4.73;;
2486;SDS011;1254;49.144;8.212;2023-05-07T10:21:20;5.90;;;5.03;;
2486;SDS011;1254;49.144;8.212;2023-05-07T10:23:53;4.93;;;4.57;;
2486;SDS011;1254;49.144;8.212;2023-05-07T10:26:25;5.97;;;4.73;;
2486;SDS011;1254;49.144;8.212;2023-05-07T10:28:54;5.43;;;5.23;;
2486;SDS011;1254;49.144;8.212;2023-05-07T10:31:34;5.63;;;5.20;;
2486;SDS011;1254;49.144;8.212;2023-05-07T10:34:08;5.33;;;4.70;;
2486;SDS011;1254;49.144;8.212;2023-05-07T10:36:38;5.83;;;5.40;;
2486;SDS011;1254;49.144;8.212;2023-05-07T10:39:07;5.10;;;4.80;;
2486;SDS011;1254;49.144;8.212;2023-05-07T10:41:36;5.20;;;4.80;;
2486;SDS011;1254;49.144;8.212;2023-05-07T10:44:04;5.77;;;5.50;;
2486;SDS011;1254;49.144;8.212;2023-05-07T10:46:34;5.23;;;5.03;;
2486;SDS011;1254;49.144;8.212;2023-05-07T10:49:18;6.40;;;5.90;;
2486;SDS011;1254;49.144;8.212;2023-05-07T10:52:14;5.23;;;5.00;;
2486;SDS011;1254;49.144;8.212;2023-05-07T11:00:56;6.20;;;5.83;;
2486;SDS011;1254;49.144;8.212;2023-05-07T11:03:29;5.53;;;5.20;;
2486;SDS011;1254;49.144;8.212;2023-05-07T11:06:10;5.63;;;5.33;;
2486;SDS011;1254;49.144;8.212;2023-05-07T11:08:53;5.70;;;5.40;;
2486;SDS011;1254;49.144;8.212;2023-05-07T11:11:45;6.57;;;6.17;;
2486;SDS011;1254;49.144;8.212;2023-05-07T11:17:27;7.03;;;6.63;;
2486;SDS011;1254;49.144;8.212;2023-05-07T11:20:03;7.13;;;6.47;;
2486;SDS011;1254;49.144;8.212;2023-05-07T11:22:39;7.30;;;6.80;;
2486;SDS011;1254;49.144;8.212;2023-05-07T11:25:28;8.00;;;7.50;;
2486;SDS011;1254;49.144;8.212;2023-05-07T11:28:17;6.87;;;6.63;;
2486;SDS011;1254;49.144;8.212;2023-05-07T11:30:54;7.20;;;6.83;;
2486;SDS011;1254;49.144;8.212;2023-05-07T11:33:22;7.17;;;6.80;;
2486;SDS011;1254;49.144;8.212;2023-05-07T11:35:52;7.80;;;7.40;;
2486;SDS011;1254;49.144;8.212;2023-05-07T11:38:25;7.53;;;7.23;;
2486;SDS011;1254;49.144;8.212;2023-05-07T11:40:54;9.50;;;9.00;;
2486;SDS011;1254;49.144;8.212;2023-05-07T11:43:22;8.43;;;7.83;;
2486;SDS011;1254;49.144;8.212;2023-05-07T11:45:50;6.83;;;6.53;;
2486;SDS011;1254;49.144;8.212;2023-05-07T11:48:19;7.77;;;7.17;;
2486;SDS011;1254;49.144;8.212;2023-05-07T11:50:51;8.13;;;7.73;;
2486;SDS011;1254;49.144;8.212;2023-05-07T11:53:20;8.27;;;7.67;;
2486;SDS011;1254;49.144;8.212;2023-05-07T11:55:53;7.50;;;7.20;;
2486;SDS011;1254;49.144;8.212;2023-05-07T11:58:23;7.80;;;7.30;;
2486;SDS011;1254;49.144;8.212;2023-05-07T12:00:53;7.60;;;7.30;;
2486;SDS011;1254;49.144;8.212;2023-05-07T12:03:21;7.77;;;7.37;;
2486;SDS011;1254;49.144;8.212;2023-05-07T12:05:49;8.30;;;7.60;;
2486;SDS011;1254;49.144;8.212;2023-05-07T12:08:18;7.87;;;7.47;;
2486;SDS011;1254;49.144;8.212;2023-05-07T12:10:48;8.07;;;7.70;;
2486;SDS011;1254;49.144;8.212;2023-05-07T12:13:18;8.63;;;8.20;;
2486;SDS011;1254;49.144;8.212;2023-05-07T12:15:46;9.60;;;8.90;;
2486;SDS011;1254;49.144;8.212;2023-05-07T12:18:14;8.20;;;7.77;;
2486;SDS011;1254;49.144;8.212;2023-05-07T12:20:42;7.43;;;7.13;;
2486;SDS011;1254;49.144;8.212;2023-05-07T12:23:11;8.40;;;7.90;;
2486;SDS011;1254;49.144;8.212;2023-05-07T12:25:40;7.53;;;7.13;;
2486;SDS011;1254;49.144;8.212;2023-05-07T12:28:13;8.00;;;7.50;;
2486;SDS011;1254;49.144;8.212;2023-05-07T12:30:43;8.33;;;7.83;;
2486;SDS011;1254;49.144;8.212;2023-05-07T12:33:11;7.90;;;7.40;;
2486;SDS011;1254;49.144;8.212;2023-05-07T12:35:40;7.47;;;7.17;;
2486;SDS011;1254;49.144;8.212;2023-05-07T12:38:09;8.30;;;7.80;;
2486;SDS011;1254;49.144;8.212;2023-05-07T12:40:38;8.20;;;7.60;;
2486;SDS011;1254;49.144;8.212;2023-05-07T12:43:06;8.40;;;7.80;;
2486;SDS011;1254;49.144;8.212;2023-05-07T12:45:38;7.30;;;6.90;;
2486;SDS011;1254;49.144;8.212;2023-05-07T12:48:08;7.03;;;6.73;;
2486;SDS011;1254;49.144;8.212;2023-05-07T12:50:37;7.60;;;7.20;;
2486;SDS011;1254;49.144;8.212;2023-05-07T12:53:06;7.90;;;7.60;;
2486;SDS011;1254;49.144;8.212;2023-05-07T12:55:40;8.27;;;7.87;;
2486;SDS011;1254;49.144;8.212;2023-05-07T12:58:08;8.63;;;7.80;;
2486;SDS011;1254;49.144;8.212;2023-05-07T13:00:41;8.40;;;7.80;;
2486;SDS011;1254;49.144;8.212;2023-05-07T13:03:11;8.40;;;7.87;;
2486;SDS011;1254;49.144;8.212;2023-05-07T13:05:39;11.90;;;8.93;;
2486;SDS011;1254;49.144;8.212;2023-05-07T13:08:08;8.43;;;8.03;;
2486;SDS011;1254;49.144;8.212;2023-05-07T13:10:36;8.10;;;7.80;;
2486;SDS011;1254;49.144;8.212;2023-05-07T13:13:05;8.53;;;8.20;;
2486;SDS011;1254;49.144;8.212;2023-05-07T13:15:33;8.60;;;8.10;;
2486;SDS011;1254;49.144;8.212;2023-05-07T13:18:01;8.63;;;8.00;;
2486;SDS011;1254;49.144;8.212;2023-05-07T13:20:31;8.20;;;7.70;;
2486;SDS011;1254;49.144;8.212;2023-05-07T13:22:59;8.40;;;8.00;;
2486;SDS011;1254;49.144;8.212;2023-05-07T13:25:28;8.80;;;8.40;;
2486;SDS011;1254;49.144;8.212;2023-05-07T13:27:56;8.37;;;7.93;;
2486;SDS011;1254;49.144;8.212;2023-05-07T13:30:25;9.07;;;8.37;;
2486;SDS011;1254;49.144;8.212;2023-05-07T13:32:53;8.37;;;7.90;;
2486;SDS011;1254;49.144;8.212;2023-05-07T13:35:23;9.60;;;9.00;;
2486;SDS011;1254;49.144;8.212;2023-05-07T13:37:53;8.57;;;8.17;;
2486;SDS011;1254;49.144;8.212;2023-05-07T13:40:21;8.20;;;7.87;;
2486;SDS011;1254;49.144;8.212;2023-05-07T13:42:50;8.47;;;8.07;;
2486;SDS011;1254;49.144;8.212;2023-05-07T13:45:18;8.97;;;8.37;;
2486;SDS011;1254;49.144;8.212;2023-05-07T13:47:47;8.83;;;8.43;;
2486;SDS011;1254;49.144;8.212;2023-05-07T13:50:16;9.13;;;8.63;;
2486;SDS011;1254;49.144;8.212;2023-05-07T13:52:44;8.40;;;7.90;;
2486;SDS011;1254;49.144;8.212;2023-05-07T13:55:18;8.53;;;8.03;;
2486;SDS011;1254;49.144;8.212;2023-05-07T13:57:47;8.63;;;8.13;;
2486;SDS011;1254;49.144;8.212;2023-05-07T14:00:15;9.83;;;9.33;;
2486;SDS011;1254;49.144;8.212;2023-05-07T14:02:43;7.67;;;7.37;;
2486;SDS011;1254;49.144;8.212;2023-05-07T14:05:11;8.07;;;7.57;;
2486;SDS011;1254;49.144;8.212;2023-05-07T14:07:40;7.63;;;7.23;;
2486;SDS011;1254;49.144;8.212;2023-05-07T14:10:09;8.10;;;7.53;;
2486;SDS011;1254;49.144;8.212;2023-05-07T14:12:39;9.73;;;6.70;;
2486;SDS011;1254;49.144;8.212;2023-05-07T14:15:07;6.97;;;6.73;;
2486;SDS011;1254;49.144;8.212;2023-05-07T14:17:36;6.73;;;6.43;;
2486;SDS011;1254;49.144;8.212;2023-05-07T14:20:04;6.73;;;6.23;;
2486;SDS011;1254;49.144;8.212;2023-05-07T14:22:33;6.50;;;6.10;;
2486;SDS011;1254;49.144;8.212;2023-05-07T14:25:01;6.57;;;6.27;;
2486;SDS011;1254;49.144;8.212;2023-05-07T14:27:29;7.70;;;7.20;;
2486;SDS011;1254;49.144;8.212;2023-05-07T14:29:59;6.87;;;6.57;;
2486;SDS011;1254;49.144;8.212;2023-05-07T14:32:28;6.33;;;6.03;;
2486;SDS011;1254;49.144;8.212;2023-05-07T14:34:56;6.60;;;6.30;;
2486;SDS011;1254;49.144;8.212;2023-05-07T14:37:25;6.53;;;5.93;;
2486;SDS011;1254;49.144;8.212;2023-05-07T14:39:53;6.87;;;6.47;;
2486;SDS011;1254;49.144;8.212;2023-05-07T14:42:22;6.93;;;6.33;;
2486;SDS011;1254;49.144;8.212;2023-05-07T14:44:50;6.20;;;5.87;;
2486;SDS011;1254;49.144;8.212;2023-05-07T14:47:20;6.70;;;6.23;;
2486;SDS011;1254;49.144;8.212;2023-05-07T14:49:48;7.50;;;6.30;;
2486;SDS011;1254;49.144;8.212;2023-05-07T14:52:17;6.80;;;6.20;;
2486;SDS011;1254;49.144;8.212;2023-05-07T14:54:45;6.67;;;6.27;;
2486;SDS011;1254;49.144;8.212;2023-05-07T14:57:13;6.93;;;6.57;;
2486;SDS011;1254;49.144;8.212;2023-05-07T14:59:44;6.47;;;6.07;;
2486;SDS011;1254;49.144;8.212;2023-05-07T15:02:13;6.70;;;6.30;;
2486;SDS011;1254;49.144;8.212;2023-05-07T15:04:44;6.13;;;5.53;;
2486;SDS011;1254;49.144;8.212;2023-05-07T15:07:13;6.00;;;5.80;;
2486;SDS011;1254;49.144;8.212;2023-05-07T15:09:42;5.80;;;5.60;;
2486;SDS011;1254;49.144;8.212;2023-05-07T15:12:10;5.77;;;5.47;;
2486;SDS011;1254;49.144;8.212;2023-05-07T15:14:39;6.70;;;6.03;;
2486;SDS011;1254;49.144;8.212;2023-05-07T15:17:07;5.27;;;4.97;;
2486;SDS011;1254;49.144;8.212;2023-05-07T15:19:36;5.57;;;5.37;;
2486;SDS011;1254;49.144;8.212;2023-05-07T15:22:05;5.80;;;5.40;;
2486;SDS011;1254;49.144;8.212;2023-05-07T15:24:36;6.30;;;5.80;;
2486;SDS011;1254;49.144;8.212;2023-05-07T15:27:04;6.23;;;5.43;;
2486;SDS011;1254;49.144;8.212;2023-05-07T15:29:33;5.20;;;4.87;;
2486;SDS011;1254;49.144;8.212;2023-05-07T15:32:02;7.30;;;6.70;;
2486;SDS011;1254;49.144;8.212;2023-05-07T15:34:33;4.17;;;3.97;;
2486;SDS011;1254;49.144;8.212;2023-05-07T15:37:01;3.73;;;3.30;;
2486;SDS011;1254;49.144;8.212;2023-05-07T15:39:31;4.43;;;2.70;;
2486;SDS011;1254;49.144;8.212;2023-05-07T15:41:59;5.60;;;2.73;;